sensor_id;sensor_type;location;lat;lon;timestamp;P1;durP1;ratioP1;P2;durP2;ratioP2
10244;SDS011;5167;52.164;10.530;2022-11-18T00:03:42;34.23;;;16.10;;
10244;SDS011;5167;52.164;10.530;2022-11-18T00:06:10;34.37;;;16.90;;
10244;SDS011;5167;52.164;10.530;2022-11-18T00:08:40;33.87;;;16.93;;
10244;SDS011;5167;52.164;10.530;2022-11-18T00:11:07;32.90;;;16.33;;
10244;SDS011;5167;52.164;10.530;2022-11-18T00:13:35;34.03;;;16.50;;
10244;SDS011;5167;52.164;10.530;2022-11-18T00:16:20;30.50;;;15.87;;
10244;SDS011;5167;52.164;10.530;2022-11-18T00:18:46;32.53;;;15.63;;
10244;SDS011;5167;52.164;10.530;2022-11-18T00:21:12;34.83;;;15.10;;
10244;SDS011;5167;52.164;10.530;2022-11-18T00:23:38;37.23;;;16.10;;
10244;SDS011;5167;52.164;10.530;2022-11-18T00:26:05;31.17;;;15.03;;
10244;SDS011;5167;52.164;10.530;2022-11-18T00:28:31;29.50;;;15.33;;
10244;SDS011;5167;52.164;10.530;2022-11-18T00:31:01;31.13;;;14.17;;
10244;SDS011;5167;52.164;10.530;2022-11-18T00:33:31;32.23;;;14.50;;
10244;SDS011;5167;52.164;10.530;2022-11-18T00:35:57;33.13;;;15.77;;
10244;SDS011;5167;52.164;10.530;2022-11-18T00:38:23;29.43;;;14.70;;
10244;SDS011;5167;52.164;10.530;2022-11-18T00:40:57;37.10;;;15.70;;
10244;SDS011;5167;52.164;10.530;2022-11-18T00:43:27;24.70;;;13.17;;
10244;SDS011;5167;52.164;10.530;2022-11-18T00:45:54;26.67;;;13.57;;
10244;SDS011;5167;52.164;10.530;2022-11-18T00:48:19;29.37;;;13.53;;
10244;SDS011;5167;52.164;10.530;2022-11-18T00:50:49;31.60;;;13.13;;
10244;SDS011;5167;52.164;10.530;2022-11-18T00:53:16;27.40;;;13.27;;
10244;SDS011;5167;52.164;10.530;2022-11-18T00:55:42;30.07;;;13.37;;
10244;SDS011;5167;52.164;10.530;2022-11-18T00:58:07;26.83;;;12.27;;
10244;SDS011;5167;52.164;10.530;2022-11-18T01:00:34;20.83;;;11.57;;
10244;SDS011;5167;52.164;10.530;2022-11-18T01:02:59;21.20;;;10.63;;
10244;SDS011;5167;52.164;10.530;2022-11-18T01:05:26;20.83;;;11.07;;
10244;SDS011;5167;52.164;10.530;2022-11-18T01:07:52;18.30;;;10.73;;
10244;SDS011;5167;52.164;10.530;2022-11-18T01:10:17;26.00;;;12.17;;
10244;SDS011;5167;52.164;10.530;2022-11-18T01:12:43;23.87;;;11.50;;
10244;SDS011;5167;52.164;10.530;2022-11-18T01:15:27;24.80;;;12.20;;
10244;SDS011;5167;52.164;10.530;2022-11-18T01:17:52;19.87;;;10.93;;
10244;SDS011;5167;52.164;10.530;2022-11-18T01:20:18;25.37;;;11.23;;
10244;SDS011;5167;52.164;10.530;2022-11-18T01:22:43;24.80;;;10.80;;
10244;SDS011;5167;52.164;10.530;2022-11-18T01:25:09;24.20;;;11.60;;
10244;SDS011;5167;52.164;10.530;2022-11-18T01:27:34;23.23;;;10.67;;
10244;SDS011;5167;52.164;10.530;2022-11-18T01:30:00;24.50;;;12.20;;
10244;SDS011;5167;52.164;10.530;2022-11-18T01:32:26;23.47;;;11.77;;
10244;SDS011;5167;52.164;10.530;2022-11-18T01:34:52;24.60;;;12.40;;
10244;SDS011;5167;52.164;10.530;2022-11-18T01:37:18;23.67;;;11.50;;
10244;SDS011;5167;52.164;10.530;2022-11-18T01:39:43;27.50;;;12.60;;
10244;SDS011;5167;52.164;10.530;2022-11-18T01:42:15;22.50;;;11.73;;
10244;SDS011;5167;52.164;10.530;2022-11-18T01:47:52;22.60;;;10.43;;
10244;SDS011;5167;52.164;10.530;2022-11-18T01:50:40;22.57;;;11.53;;
10244;SDS011;5167;52.164;10.530;2022-11-18T01:53:12;21.17;;;11.13;;
10244;SDS011;5167;52.164;10.530;2022-11-18T01:55:44;25.67;;;11.50;;
10244;SDS011;5167;52.164;10.530;2022-11-18T01:58:15;21.23;;;11.03;;
10244;SDS011;5167;52.164;10.530;2022-11-18T02:00:46;21.80;;;11.43;;
10244;SDS011;5167;52.164;10.530;2022-11-18T02:03:11;23.10;;;10.90;;
10244;SDS011;5167;52.164;10.530;2022-11-18T02:05:39;22.07;;;11.47;;
10244;SDS011;5167;52.164;10.530;2022-11-18T02:08:07;20.17;;;10.97;;
10244;SDS011;5167;52.164;10.530;2022-11-18T02:10:33;28.23;;;11.90;;
10244;SDS011;5167;52.164;10.530;2022-11-18T02:13:00;27.03;;;12.60;;
10244;SDS011;5167;52.164;10.530;2022-11-18T02:15:36;25.37;;;12.10;;
10244;SDS011;5167;52.164;10.530;2022-11-18T02:18:20;28.47;;;13.27;;
10244;SDS011;5167;52.164;10.530;2022-11-18T02:21:20;25.07;;;12.33;;
10244;SDS011;5167;52.164;10.530;2022-11-18T02:30:10;27.73;;;13.17;;
10244;SDS011;5167;52.164;10.530;2022-11-18T02:32:41;31.67;;;13.63;;
10244;SDS011;5167;52.164;10.530;2022-11-18T02:35:38;24.60;;;12.67;;
10244;SDS011;5167;52.164;10.530;2022-11-18T02:38:08;26.47;;;13.43;;
10244;SDS011;5167;52.164;10.530;2022-11-18T02:40:44;28.43;;;13.83;;
10244;SDS011;5167;52.164;10.530;2022-11-18T02:43:33;25.70;;;13.27;;
10244;SDS011;5167;52.164;10.530;2022-11-18T02:46:08;26.57;;;11.80;;
10244;SDS011;5167;52.164;10.530;2022-11-18T02:48:40;30.77;;;12.73;;
10244;SDS011;5167;52.164;10.530;2022-11-18T02:51:11;27.20;;;11.90;;
10244;SDS011;5167;52.164;10.530;2022-11-18T02:53:39;29.93;;;13.03;;
10244;SDS011;5167;52.164;10.530;2022-11-18T02:56:07;26.53;;;11.67;;
10244;SDS011;5167;52.164;10.530;2022-11-18T02:58:34;27.40;;;11.80;;
10244;SDS011;5167;52.164;10.530;2022-11-18T03:01:00;27.73;;;12.47;;
10244;SDS011;5167;52.164;10.530;2022-11-18T03:03:27;24.03;;;11.03;;
10244;SDS011;5167;52.164;10.530;2022-11-18T03:06:14;25.10;;;11.53;;
10244;SDS011;5167;52.164;10.530;2022-11-18T03:08:53;24.50;;;11.77;;
10244;SDS011;5167;52.164;10.530;2022-11-18T03:11:33;30.90;;;12.63;;
10244;SDS011;5167;52.164;10.530;2022-11-18T03:21:56;32.33;;;12.30;;
10244;SDS011;5167;52.164;10.530;2022-11-18T03:24:33;27.87;;;12.20;;
10244;SDS011;5167;52.164;10.530;2022-11-18T03:27:05;26.00;;;12.30;;
10244;SDS011;5167;52.164;10.530;2022-11-18T03:29:37;26.13;;;12.60;;
10244;SDS011;5167;52.164;10.530;2022-11-18T03:32:10;26.17;;;11.50;;
10244;SDS011;5167;52.164;10.530;2022-11-18T03:34:48;27.30;;;13.17;;
10244;SDS011;5167;52.164;10.530;2022-11-18T03:37:17;28.17;;;13.33;;
10244;SDS011;5167;52.164;10.530;2022-11-18T03:39:46;25.47;;;12.70;;
10244;SDS011;5167;52.164;10.530;2022-11-18T03:42:23;25.03;;;12.27;;
10244;SDS011;5167;52.164;10.530;2022-11-18T03:44:54;34.03;;;13.97;;
10244;SDS011;5167;52.164;10.530;2022-11-18T03:47:34;28.10;;;13.13;;
10244;SDS011;5167;52.164;10.530;2022-11-18T03:50:05;29.83;;;13.07;;
10244;SDS011;5167;52.164;10.530;2022-11-18T03:52:37;26.53;;;12.53;;
10244;SDS011;5167;52.164;10.530;2022-11-18T03:55:06;27.77;;;12.43;;
10244;SDS011;5167;52.164;10.530;2022-11-18T03:57:44;28.67;;;13.70;;
10244;SDS011;5167;52.164;10.530;2022-11-18T04:00:17;26.20;;;13.03;;
10244;SDS011;5167;52.164;10.530;2022-11-18T04:02:44;29.67;;;13.27;;
10244;SDS011;5167;52.164;10.530;2022-11-18T04:05:12;32.63;;;14.27;;
10244;SDS011;5167;52.164;10.530;2022-11-18T04:10:30;30.37;;;13.17;;
10244;SDS011;5167;52.164;10.530;2022-11-18T04:13:04;32.77;;;14.80;;
10244;SDS011;5167;52.164;10.530;2022-11-18T04:15:35;31.57;;;14.40;;
10244;SDS011;5167;52.164;10.530;2022-11-18T04:18:02;39.07;;;16.10;;
10244;SDS011;5167;52.164;10.530;2022-11-18T04:20:28;32.43;;;14.07;;
10244;SDS011;5167;52.164;10.530;2022-11-18T04:22:55;36.40;;;14.63;;
10244;SDS011;5167;52.164;10.530;2022-11-18T04:25:21;34.37;;;13.27;;
10244;SDS011;5167;52.164;10.530;2022-11-18T04:27:48;32.03;;;13.93;;
10244;SDS011;5167;52.164;10.530;2022-11-18T04:30:14;35.13;;;14.50;;
10244;SDS011;5167;52.164;10.530;2022-11-18T04:32:39;39.07;;;14.63;;
10244;SDS011;5167;52.164;10.530;2022-11-18T04:35:05;32.20;;;13.87;;
10244;SDS011;5167;52.164;10.530;2022-11-18T04:37:30;33.03;;;14.60;;
10244;SDS011;5167;52.164;10.530;2022-11-18T04:39:56;30.43;;;13.57;;
10244;SDS011;5167;52.164;10.530;2022-11-18T04:42:21;32.47;;;14.27;;
10244;SDS011;5167;52.164;10.530;2022-11-18T04:44:47;32.63;;;13.80;;
10244;SDS011;5167;52.164;10.530;2022-11-18T04:47:12;32.67;;;13.53;;
10244;SDS011;5167;52.164;10.530;2022-11-18T04:49:38;30.50;;;13.90;;
10244;SDS011;5167;52.164;10.530;2022-11-18T04:52:03;32.53;;;13.53;;
10244;SDS011;5167;52.164;10.530;2022-11-18T04:54:29;34.53;;;13.70;;
10244;SDS011;5167;52.164;10.530;2022-11-18T04:56:55;34.33;;;14.80;;
10244;SDS011;5167;52.164;10.530;2022-11-18T04:59:22;34.77;;;14.77;;
10244;SDS011;5167;52.164;10.530;2022-11-18T05:01:49;30.93;;;13.97;;
10244;SDS011;5167;52.164;10.530;2022-11-18T05:04:19;35.53;;;13.97;;
10244;SDS011;5167;52.164;10.530;2022-11-18T05:06:46;35.50;;;13.97;;
10244;SDS011;5167;52.164;10.530;2022-11-18T05:09:12;32.60;;;14.33;;
10244;SDS011;5167;52.164;10.530;2022-11-18T05:11:38;29.57;;;13.93;;
10244;SDS011;5167;52.164;10.530;2022-11-18T05:14:26;30.00;;;13.07;;
10244;SDS011;5167;52.164;10.530;2022-11-18T05:16:53;28.63;;;13.00;;
10244;SDS011;5167;52.164;10.530;2022-11-18T05:19:20;31.03;;;13.07;;
10244;SDS011;5167;52.164;10.530;2022-11-18T05:21:46;31.37;;;13.83;;
10244;SDS011;5167;52.164;10.530;2022-11-18T05:24:11;29.30;;;13.13;;
10244;SDS011;5167;52.164;10.530;2022-11-18T05:26:37;36.10;;;14.93;;
10244;SDS011;5167;52.164;10.530;2022-11-18T05:29:03;34.03;;;14.23;;
10244;SDS011;5167;52.164;10.530;2022-11-18T05:31:29;36.63;;;14.63;;
10244;SDS011;5167;52.164;10.530;2022-11-18T05:33:54;28.73;;;13.83;;
10244;SDS011;5167;52.164;10.530;2022-11-18T05:36:20;30.20;;;13.17;;
10244;SDS011;5167;52.164;10.530;2022-11-18T05:38:46;31.47;;;13.97;;
10244;SDS011;5167;52.164;10.530;2022-11-18T05:41:12;29.53;;;13.67;;
10244;SDS011;5167;52.164;10.530;2022-11-18T05:43:57;27.40;;;13.77;;
10244;SDS011;5167;52.164;10.530;2022-11-18T05:46:23;28.57;;;12.83;;
10244;SDS011;5167;52.164;10.530;2022-11-18T05:48:49;36.37;;;13.37;;
10244;SDS011;5167;52.164;10.530;2022-11-18T05:51:15;33.23;;;13.50;;
10244;SDS011;5167;52.164;10.530;2022-11-18T05:53:41;30.10;;;12.87;;
10244;SDS011;5167;52.164;10.530;2022-11-18T05:56:15;29.67;;;13.57;;
10244;SDS011;5167;52.164;10.530;2022-11-18T05:58:53;28.70;;;13.23;;
10244;SDS011;5167;52.164;10.530;2022-11-18T06:01:24;32.70;;;12.37;;
10244;SDS011;5167;52.164;10.530;2022-11-18T06:03:55;34.47;;;13.87;;
10244;SDS011;5167;52.164;10.530;2022-11-18T06:06:22;31.03;;;13.30;;
10244;SDS011;5167;52.164;10.530;2022-11-18T06:09:00;31.70;;;13.23;;
10244;SDS011;5167;52.164;10.530;2022-11-18T06:11:29;30.37;;;12.93;;
10244;SDS011;5167;52.164;10.530;2022-11-18T06:14:01;31.97;;;14.13;;
10244;SDS011;5167;52.164;10.530;2022-11-18T06:16:29;32.70;;;12.90;;
10244;SDS011;5167;52.164;10.530;2022-11-18T06:18:58;30.77;;;14.23;;
10244;SDS011;5167;52.164;10.530;2022-11-18T06:21:26;28.10;;;12.57;;
10244;SDS011;5167;52.164;10.530;2022-11-18T06:23:52;32.97;;;14.37;;
10244;SDS011;5167;52.164;10.530;2022-11-18T06:26:18;31.80;;;13.80;;
10244;SDS011;5167;52.164;10.530;2022-11-18T06:28:44;26.67;;;12.10;;
10244;SDS011;5167;52.164;10.530;2022-11-18T06:31:12;31.07;;;13.63;;
10244;SDS011;5167;52.164;10.530;2022-11-18T06:33:38;29.90;;;12.73;;
10244;SDS011;5167;52.164;10.530;2022-11-18T06:36:03;29.33;;;12.23;;
10244;SDS011;5167;52.164;10.530;2022-11-18T06:38:29;29.67;;;13.20;;
10244;SDS011;5167;52.164;10.530;2022-11-18T06:40:58;28.23;;;14.07;;
10244;SDS011;5167;52.164;10.530;2022-11-18T06:43:25;31.90;;;13.47;;
10244;SDS011;5167;52.164;10.530;2022-11-18T06:46:04;28.07;;;13.43;;
10244;SDS011;5167;52.164;10.530;2022-11-18T06:48:49;29.77;;;13.10;;
10244;SDS011;5167;52.164;10.530;2022-11-18T06:51:15;31.63;;;13.77;;
10244;SDS011;5167;52.164;10.530;2022-11-18T06:53:41;32.50;;;14.33;;
10244;SDS011;5167;52.164;10.530;2022-11-18T06:56:08;31.83;;;14.07;;
10244;SDS011;5167;52.164;10.530;2022-11-18T06:58:36;34.63;;;13.80;;
10244;SDS011;5167;52.164;10.530;2022-11-18T07:01:10;31.77;;;13.00;;
10244;SDS011;5167;52.164;10.530;2022-11-18T07:03:38;33.37;;;14.13;;
10244;SDS011;5167;52.164;10.530;2022-11-18T07:06:04;32.23;;;12.73;;
10244;SDS011;5167;52.164;10.530;2022-11-18T07:08:31;32.03;;;12.77;;
10244;SDS011;5167;52.164;10.530;2022-11-18T07:10:59;30.03;;;12.63;;
10244;SDS011;5167;52.164;10.530;2022-11-18T07:13:24;28.60;;;13.27;;
10244;SDS011;5167;52.164;10.530;2022-11-18T07:15:50;26.87;;;12.63;;
10244;SDS011;5167;52.164;10.530;2022-11-18T07:18:16;30.67;;;12.77;;
10244;SDS011;5167;52.164;10.530;2022-11-18T07:20:41;31.67;;;13.90;;
10244;SDS011;5167;52.164;10.530;2022-11-18T07:23:07;29.17;;;13.70;;
10244;SDS011;5167;52.164;10.530;2022-11-18T07:25:33;28.03;;;11.50;;
10244;SDS011;5167;52.164;10.530;2022-11-18T07:27:58;26.80;;;12.93;;
10244;SDS011;5167;52.164;10.530;2022-11-18T07:30:30;32.77;;;13.13;;
10244;SDS011;5167;52.164;10.530;2022-11-18T07:32:56;26.17;;;11.77;;
10244;SDS011;5167;52.164;10.530;2022-11-18T07:35:21;25.47;;;11.80;;
10244;SDS011;5167;52.164;10.530;2022-11-18T07:37:47;30.63;;;12.53;;
10244;SDS011;5167;52.164;10.530;2022-11-18T07:40:12;27.00;;;11.73;;
10244;SDS011;5167;52.164;10.530;2022-11-18T07:42:38;25.80;;;11.43;;
10244;SDS011;5167;52.164;10.530;2022-11-18T07:45:08;27.13;;;12.07;;
10244;SDS011;5167;52.164;10.530;2022-11-18T07:47:36;25.97;;;12.30;;
10244;SDS011;5167;52.164;10.530;2022-11-18T07:50:03;23.83;;;11.00;;
10244;SDS011;5167;52.164;10.530;2022-11-18T07:52:29;22.43;;;11.37;;
10244;SDS011;5167;52.164;10.530;2022-11-18T07:54:54;25.63;;;11.83;;
10244;SDS011;5167;52.164;10.530;2022-11-18T07:57:20;27.13;;;11.33;;
10244;SDS011;5167;52.164;10.530;2022-11-18T07:59:45;29.23;;;12.53;;
10244;SDS011;5167;52.164;10.530;2022-11-18T08:02:11;24.30;;;12.10;;
10244;SDS011;5167;52.164;10.530;2022-11-18T08:04:36;23.67;;;11.20;;
10244;SDS011;5167;52.164;10.530;2022-11-18T08:07:02;27.17;;;11.40;;
10244;SDS011;5167;52.164;10.530;2022-11-18T08:09:28;23.83;;;12.00;;
10244;SDS011;5167;52.164;10.530;2022-11-18T08:11:53;26.50;;;11.90;;
10244;SDS011;5167;52.164;10.530;2022-11-18T08:14:19;25.20;;;11.70;;
10244;SDS011;5167;52.164;10.530;2022-11-18T08:16:46;30.03;;;12.43;;
10244;SDS011;5167;52.164;10.530;2022-11-18T08:19:12;28.07;;;12.80;;
10244;SDS011;5167;52.164;10.530;2022-11-18T08:21:37;32.40;;;11.67;;
10244;SDS011;5167;52.164;10.530;2022-11-18T08:24:03;31.90;;;12.37;;
10244;SDS011;5167;52.164;10.530;2022-11-18T08:26:29;26.53;;;12.57;;
10244;SDS011;5167;52.164;10.530;2022-11-18T08:28:54;29.77;;;12.37;;
10244;SDS011;5167;52.164;10.530;2022-11-18T08:31:22;27.87;;;12.73;;
10244;SDS011;5167;52.164;10.530;2022-11-18T08:33:54;26.20;;;12.87;;
10244;SDS011;5167;52.164;10.530;2022-11-18T08:36:21;30.20;;;12.73;;
10244;SDS011;5167;52.164;10.530;2022-11-18T08:38:49;28.63;;;12.73;;
10244;SDS011;5167;52.164;10.530;2022-11-18T08:41:16;26.73;;;12.90;;
10244;SDS011;5167;52.164;10.530;2022-11-18T08:43:47;34.63;;;14.53;;
10244;SDS011;5167;52.164;10.530;2022-11-18T08:46:13;30.67;;;13.97;;
10244;SDS011;5167;52.164;10.530;2022-11-18T08:48:38;32.07;;;14.70;;
10244;SDS011;5167;52.164;10.530;2022-11-18T08:51:04;34.57;;;13.80;;
10244;SDS011;5167;52.164;10.530;2022-11-18T08:53:30;33.33;;;14.80;;
10244;SDS011;5167;52.164;10.530;2022-11-18T08:55:57;33.17;;;15.33;;
10244;SDS011;5167;52.164;10.530;2022-11-18T08:58:24;34.30;;;14.10;;
10244;SDS011;5167;52.164;10.530;2022-11-18T09:00:50;28.67;;;12.97;;
10244;SDS011;5167;52.164;10.530;2022-11-18T09:03:16;32.93;;;13.47;;
10244;SDS011;5167;52.164;10.530;2022-11-18T09:05:41;29.63;;;13.90;;
10244;SDS011;5167;52.164;10.530;2022-11-18T09:08:07;27.33;;;12.23;;
10244;SDS011;5167;52.164;10.530;2022-11-18T09:10:32;28.60;;;12.87;;
10244;SDS011;5167;52.164;10.530;2022-11-18T09:12:58;26.13;;;12.43;;
10244;SDS011;5167;52.164;10.530;2022-11-18T09:15:24;25.60;;;13.27;;
10244;SDS011;5167;52.164;10.530;2022-11-18T09:17:50;33.13;;;12.93;;
10244;SDS011;5167;52.164;10.530;2022-11-18T09:20:16;28.53;;;12.10;;
10244;SDS011;5167;52.164;10.530;2022-11-18T09:22:42;25.70;;;12.47;;
10244;SDS011;5167;52.164;10.530;2022-11-18T09:25:08;24.73;;;11.90;;
10244;SDS011;5167;52.164;10.530;2022-11-18T09:27:34;25.73;;;11.80;;
10244;SDS011;5167;52.164;10.530;2022-11-18T09:29:59;27.63;;;12.37;;
10244;SDS011;5167;52.164;10.530;2022-11-18T09:32:25;27.17;;;11.83;;
10244;SDS011;5167;52.164;10.530;2022-11-18T09:34:50;26.40;;;13.43;;
10244;SDS011;5167;52.164;10.530;2022-11-18T09:37:16;26.63;;;12.27;;
10244;SDS011;5167;52.164;10.530;2022-11-18T09:39:41;27.30;;;11.97;;
10244;SDS011;5167;52.164;10.530;2022-11-18T09:47:41;23.97;;;11.80;;
10244;SDS011;5167;52.164;10.530;2022-11-18T09:50:14;23.60;;;10.93;;
10244;SDS011;5167;52.164;10.530;2022-11-18T09:55:31;25.80;;;10.97;;
10244;SDS011;5167;52.164;10.530;2022-11-18T09:58:01;24.43;;;11.33;;
10244;SDS011;5167;52.164;10.530;2022-11-18T10:00:29;25.87;;;11.90;;
10244;SDS011;5167;52.164;10.530;2022-11-18T10:03:10;26.17;;;11.90;;
10244;SDS011;5167;52.164;10.530;2022-11-18T10:08:23;25.87;;;12.17;;
10244;SDS011;5167;52.164;10.530;2022-11-18T10:16:24;33.10;;;12.93;;
10244;SDS011;5167;52.164;10.530;2022-11-18T10:19:04;23.03;;;11.03;;
10244;SDS011;5167;52.164;10.530;2022-11-18T10:24:48;24.80;;;12.23;;
10244;SDS011;5167;52.164;10.530;2022-11-18T10:27:15;28.00;;;12.17;;
10244;SDS011;5167;52.164;10.530;2022-11-18T10:29:42;25.90;;;11.90;;
10244;SDS011;5167;52.164;10.530;2022-11-18T10:32:13;26.57;;;12.57;;
10244;SDS011;5167;52.164;10.530;2022-11-18T10:37:22;27.33;;;12.90;;
10244;SDS011;5167;52.164;10.530;2022-11-18T10:39:54;25.73;;;12.00;;
10244;SDS011;5167;52.164;10.530;2022-11-18T10:42:43;25.17;;;10.30;;
10244;SDS011;5167;52.164;10.530;2022-11-18T10:45:14;22.10;;;9.90;;
10244;SDS011;5167;52.164;10.530;2022-11-18T10:47:40;21.00;;;10.30;;
10244;SDS011;5167;52.164;10.530;2022-11-18T10:50:48;23.57;;;11.00;;
10244;SDS011;5167;52.164;10.530;2022-11-18T10:52:56;18.33;;;9.17;;
10244;SDS011;5167;52.164;10.530;2022-11-18T10:55:23;24.87;;;9.93;;
10244;SDS011;5167;52.164;10.530;2022-11-18T10:57:52;22.13;;;10.47;;
10244;SDS011;5167;52.164;10.530;2022-11-18T11:00:44;18.10;;;8.90;;
10244;SDS011;5167;52.164;10.530;2022-11-18T11:03:26;17.73;;;9.17;;
10244;SDS011;5167;52.164;10.530;2022-11-18T11:08:49;19.53;;;9.30;;
10244;SDS011;5167;52.164;10.530;2022-11-18T11:14:12;21.57;;;10.50;;
10244;SDS011;5167;52.164;10.530;2022-11-18T11:16:52;21.23;;;9.63;;
10244;SDS011;5167;52.164;10.530;2022-11-18T11:19:40;20.00;;;10.07;;
10244;SDS011;5167;52.164;10.530;2022-11-18T11:22:10;22.73;;;10.70;;
10244;SDS011;5167;52.164;10.530;2022-11-18T11:24:37;22.60;;;10.77;;
10244;SDS011;5167;52.164;10.530;2022-11-18T11:27:09;19.30;;;9.73;;
10244;SDS011;5167;52.164;10.530;2022-11-18T11:40:59;22.70;;;11.03;;
10244;SDS011;5167;52.164;10.530;2022-11-18T11:51:00;24.47;;;11.27;;
10244;SDS011;5167;52.164;10.530;2022-11-18T11:59:09;23.87;;;11.50;;
10244;SDS011;5167;52.164;10.530;2022-11-18T12:07:37;24.83;;;11.90;;
10244;SDS011;5167;52.164;10.530;2022-11-18T12:15:43;27.43;;;11.80;;
10244;SDS011;5167;52.164;10.530;2022-11-18T12:18:42;23.60;;;12.10;;
10244;SDS011;5167;52.164;10.530;2022-11-18T12:26:55;22.77;;;11.23;;
10244;SDS011;5167;52.164;10.530;2022-11-18T12:29:22;26.47;;;11.03;;
10244;SDS011;5167;52.164;10.530;2022-11-18T12:34:37;22.23;;;10.83;;
10244;SDS011;5167;52.164;10.530;2022-11-18T12:39:56;24.03;;;11.53;;
10244;SDS011;5167;52.164;10.530;2022-11-18T12:42:34;21.63;;;10.53;;
10244;SDS011;5167;52.164;10.530;2022-11-18T12:50:53;22.97;;;10.70;;
10244;SDS011;5167;52.164;10.530;2022-11-18T12:53:36;20.47;;;10.53;;
10244;SDS011;5167;52.164;10.530;2022-11-18T12:58:59;23.17;;;11.30;;
10244;SDS011;5167;52.164;10.530;2022-11-18T13:01:26;19.63;;;10.20;;
10244;SDS011;5167;52.164;10.530;2022-11-18T13:06:32;20.83;;;11.00;;
10244;SDS011;5167;52.164;10.530;2022-11-18T13:09:00;21.47;;;10.60;;
10244;SDS011;5167;52.164;10.530;2022-11-18T13:11:28;24.93;;;10.50;;
10244;SDS011;5167;52.164;10.530;2022-11-18T13:17:56;23.77;;;11.43;;
10244;SDS011;5167;52.164;10.530;2022-11-18T13:23:01;19.23;;;10.63;;
10244;SDS011;5167;52.164;10.530;2022-11-18T13:25:47;24.57;;;12.17;;
10244;SDS011;5167;52.164;10.530;2022-11-18T13:28:20;26.60;;;13.23;;
10244;SDS011;5167;52.164;10.530;2022-11-18T13:33:50;32.60;;;15.00;;
10244;SDS011;5167;52.164;10.530;2022-11-18T13:36:17;27.70;;;13.70;;
10244;SDS011;5167;52.164;10.530;2022-11-18T13:39:01;32.47;;;15.03;;
10244;SDS011;5167;52.164;10.530;2022-11-18T13:41:29;30.50;;;15.03;;
10244;SDS011;5167;52.164;10.530;2022-11-18T13:47:06;28.83;;;14.50;;
10244;SDS011;5167;52.164;10.530;2022-11-18T13:49:58;33.53;;;15.67;;
10244;SDS011;5167;52.164;10.530;2022-11-18T13:52:27;34.03;;;15.60;;
10244;SDS011;5167;52.164;10.530;2022-11-18T13:54:59;33.57;;;16.27;;
10244;SDS011;5167;52.164;10.530;2022-11-18T13:57:27;32.57;;;16.27;;
10244;SDS011;5167;52.164;10.530;2022-11-18T13:59:54;33.73;;;16.23;;
10244;SDS011;5167;52.164;10.530;2022-11-18T14:02:24;35.43;;;16.87;;
10244;SDS011;5167;52.164;10.530;2022-11-18T14:04:51;30.70;;;15.70;;
10244;SDS011;5167;52.164;10.530;2022-11-18T14:07:23;31.03;;;16.00;;
10244;SDS011;5167;52.164;10.530;2022-11-18T14:10:13;33.87;;;15.63;;
10244;SDS011;5167;52.164;10.530;2022-11-18T14:12:40;31.53;;;16.37;;
10244;SDS011;5167;52.164;10.530;2022-11-18T14:17:53;35.57;;;16.40;;
10244;SDS011;5167;52.164;10.530;2022-11-18T14:20:21;29.80;;;15.27;;
10244;SDS011;5167;52.164;10.530;2022-11-18T14:22:49;34.23;;;16.00;;
10244;SDS011;5167;52.164;10.530;2022-11-18T14:25:19;33.03;;;16.00;;
10244;SDS011;5167;52.164;10.530;2022-11-18T14:27:52;33.80;;;16.27;;
10244;SDS011;5167;52.164;10.530;2022-11-18T14:33:10;35.57;;;16.20;;
10244;SDS011;5167;52.164;10.530;2022-11-18T14:35:50;35.53;;;16.10;;
10244;SDS011;5167;52.164;10.530;2022-11-18T14:38:23;29.40;;;15.33;;
10244;SDS011;5167;52.164;10.530;2022-11-18T14:40:56;35.27;;;15.67;;
10244;SDS011;5167;52.164;10.530;2022-11-18T14:43:24;33.13;;;15.27;;
10244;SDS011;5167;52.164;10.530;2022-11-18T14:45:51;30.97;;;14.97;;
10244;SDS011;5167;52.164;10.530;2022-11-18T14:48:19;36.17;;;16.07;;
10244;SDS011;5167;52.164;10.530;2022-11-18T14:50:48;33.83;;;17.17;;
10244;SDS011;5167;52.164;10.530;2022-11-18T14:53:14;33.50;;;16.43;;
10244;SDS011;5167;52.164;10.530;2022-11-18T14:55:39;34.57;;;17.03;;
10244;SDS011;5167;52.164;10.530;2022-11-18T14:58:08;38.97;;;18.17;;
10244;SDS011;5167;52.164;10.530;2022-11-18T15:00:36;43.03;;;18.80;;
10244;SDS011;5167;52.164;10.530;2022-11-18T15:03:02;41.50;;;19.30;;
10244;SDS011;5167;52.164;10.530;2022-11-18T15:05:27;38.00;;;18.83;;
10244;SDS011;5167;52.164;10.530;2022-11-18T15:07:53;36.20;;;17.53;;
10244;SDS011;5167;52.164;10.530;2022-11-18T15:10:18;32.20;;;15.93;;
10244;SDS011;5167;52.164;10.530;2022-11-18T15:12:44;38.90;;;18.30;;
10244;SDS011;5167;52.164;10.530;2022-11-18T15:15:09;36.67;;;17.17;;
10244;SDS011;5167;52.164;10.530;2022-11-18T15:17:35;38.67;;;17.73;;
10244;SDS011;5167;52.164;10.530;2022-11-18T15:20:01;38.07;;;18.60;;
10244;SDS011;5167;52.164;10.530;2022-11-18T15:22:28;35.70;;;18.27;;
10244;SDS011;5167;52.164;10.530;2022-11-18T15:24:53;40.03;;;18.53;;
10244;SDS011;5167;52.164;10.530;2022-11-18T15:27:19;38.27;;;18.20;;
10244;SDS011;5167;52.164;10.530;2022-11-18T15:29:45;31.90;;;17.07;;
10244;SDS011;5167;52.164;10.530;2022-11-18T15:32:10;33.27;;;17.07;;
10244;SDS011;5167;52.164;10.530;2022-11-18T15:34:36;32.70;;;17.93;;
10244;SDS011;5167;52.164;10.530;2022-11-18T15:37:01;34.43;;;18.20;;
10244;SDS011;5167;52.164;10.530;2022-11-18T15:39:27;34.33;;;16.90;;
10244;SDS011;5167;52.164;10.530;2022-11-18T15:41:52;30.80;;;16.07;;
10244;SDS011;5167;52.164;10.530;2022-11-18T15:44:18;36.40;;;17.67;;
10244;SDS011;5167;52.164;10.530;2022-11-18T15:46:43;32.80;;;16.17;;
10244;SDS011;5167;52.164;10.530;2022-11-18T15:49:12;31.07;;;16.53;;
10244;SDS011;5167;52.164;10.530;2022-11-18T15:51:38;31.03;;;16.47;;
10244;SDS011;5167;52.164;10.530;2022-11-18T15:54:04;31.60;;;16.47;;
10244;SDS011;5167;52.164;10.530;2022-11-18T15:56:30;31.37;;;16.43;;
10244;SDS011;5167;52.164;10.530;2022-11-18T15:59:00;30.10;;;16.73;;
10244;SDS011;5167;52.164;10.530;2022-11-18T16:01:28;31.83;;;16.10;;
10244;SDS011;5167;52.164;10.530;2022-11-18T16:03:56;28.27;;;15.23;;
10244;SDS011;5167;52.164;10.530;2022-11-18T16:06:22;31.60;;;16.90;;
10244;SDS011;5167;52.164;10.530;2022-11-18T16:08:48;33.40;;;16.33;;
10244;SDS011;5167;52.164;10.530;2022-11-18T16:11:15;31.83;;;15.80;;
10244;SDS011;5167;52.164;10.530;2022-11-18T16:14:04;30.33;;;15.33;;
10244;SDS011;5167;52.164;10.530;2022-11-18T16:16:31;26.43;;;13.87;;
10244;SDS011;5167;52.164;10.530;2022-11-18T16:18:58;24.60;;;12.83;;
10244;SDS011;5167;52.164;10.530;2022-11-18T16:21:26;25.50;;;12.43;;
10244;SDS011;5167;52.164;10.530;2022-11-18T16:23:53;24.60;;;13.17;;
10244;SDS011;5167;52.164;10.530;2022-11-18T16:26:23;22.37;;;12.57;;
10244;SDS011;5167;52.164;10.530;2022-11-18T16:28:49;22.70;;;12.53;;
10244;SDS011;5167;52.164;10.530;2022-11-18T16:31:15;20.87;;;12.03;;
10244;SDS011;5167;52.164;10.530;2022-11-18T16:34:03;22.77;;;12.20;;
10244;SDS011;5167;52.164;10.530;2022-11-18T16:36:33;22.60;;;12.50;;
10244;SDS011;5167;52.164;10.530;2022-11-18T16:39:07;23.10;;;12.47;;
10244;SDS011;5167;52.164;10.530;2022-11-18T16:41:35;22.07;;;12.77;;